createdAt,value
2019-02-19T00:00:50.839Z,0
2019-02-19T00:02:00.293Z,0
2019-02-19T00:03:10.252Z,0
2019-02-19T00:04:19.727Z,0
2019-02-19T00:05:29.477Z,0
2019-02-19T00:06:39.220Z,0
2019-02-19T00:07:48.933Z,0
2019-02-19T00:08:58.393Z,0
2019-02-19T00:10:08.358Z,0
2019-02-19T00:11:17.835Z,0
2019-02-19T00:12:27.812Z,0
2019-02-19T00:13:37.819Z,0
2019-02-19T00:14:47.548Z,0
2019-02-19T00:15:57.055Z,0
2019-02-19T00:17:06.537Z,0
2019-02-19T00:18:16.516Z,0
2019-02-19T00:19:26.471Z,0
2019-02-19T00:20:36.198Z,0
2019-02-19T00:21:45.926Z,0
2019-02-19T00:22:55.918Z,0
2019-02-19T00:24:05.894Z,0
2019-02-19T00:25:15.134Z,0
2019-02-19T00:26:24.877Z,0
2019-02-19T00:27:34.350Z,0
2019-02-19T00:28:44.063Z,0
2019-02-19T00:29:53.766Z,0
2019-02-19T00:31:03.502Z,0
2019-02-19T00:32:13.477Z,0
2019-02-19T00:33:23.223Z,0
2019-02-19T00:34:33.201Z,0
2019-02-19T00:35:43.186Z,0
2019-02-19T00:36:52.914Z,0
2019-02-19T00:38:02.629Z,0
2019-02-19T00:39:13.728Z,0
2019-02-19T00:40:23.714Z,0
2019-02-19T00:41:33.183Z,0
2019-02-19T00:42:42.657Z,0
2019-02-19T00:43:52.343Z,0
2019-02-19T00:45:02.124Z,0
2019-02-19T00:46:11.607Z,0
2019-02-19T00:47:21.357Z,0
2019-02-19T00:48:31.326Z,0
2019-02-19T00:49:40.548Z,0
2019-02-19T00:50:49.793Z,0
2019-02-19T00:51:59.528Z,0
2019-02-19T00:53:09.050Z,0
2019-02-19T00:54:18.519Z,0
2019-02-19T00:55:27.981Z,0
2019-02-19T00:56:37.691Z,0
2019-02-19T00:57:47.406Z,0
2019-02-19T00:58:57.125Z,0
2019-02-19T01:00:06.584Z,0
2019-02-19T01:01:16.567Z,0
2019-02-19T01:02:26.540Z,0
2019-02-19T01:03:36.529Z,0
2019-02-19T01:04:45.984Z,0
2019-02-19T01:05:55.938Z,0
2019-02-19T01:07:05.680Z,0
2019-02-19T01:08:15.435Z,0
2019-02-19T01:09:25.161Z,0
2019-02-19T01:10:34.863Z,0
2019-02-19T01:11:44.072Z,0
2019-02-19T01:15:34.191Z,0
2019-02-19T01:16:43.403Z,0
2019-02-19T01:17:53.135Z,0
2019-02-19T01:19:03.083Z,0
2019-02-19T01:20:12.771Z,0
2019-02-19T01:21:21.966Z,0
2019-02-19T01:22:31.645Z,0
2019-02-19T01:23:41.338Z,0
2019-02-19T01:24:51.283Z,0
2019-02-19T01:26:00.965Z,0
2019-02-19T01:27:10.668Z,0
2019-02-19T01:28:20.353Z,0
2019-02-19T01:29:29.804Z,0
2019-02-19T01:30:39.499Z,0
2019-02-19T01:31:49.186Z,0
2019-02-19T01:32:58.901Z,0
2019-02-19T01:34:08.597Z,0
2019-02-19T01:35:18.307Z,0
2019-02-19T01:36:28.258Z,0
2019-02-19T01:37:37.703Z,0
2019-02-19T01:38:47.394Z,0
2019-02-19T01:39:57.093Z,0
2019-02-19T01:41:06.534Z,0
2019-02-19T01:42:15.727Z,0
2019-02-19T01:43:25.422Z,0
2019-02-19T01:44:35.112Z,0
2019-02-19T01:45:45.052Z,0
2019-02-19T01:46:54.742Z,0
2019-02-19T01:48:04.686Z,0
2019-02-19T01:49:14.376Z,0
2019-02-19T01:50:24.323Z,0
2019-02-19T01:51:34.016Z,0
2019-02-19T01:52:43.729Z,0
2019-02-19T01:53:53.237Z,0
2019-02-19T01:55:03.211Z,0
2019-02-19T01:56:13.149Z,0
2019-02-19T01:57:22.838Z,0
2019-02-19T01:58:32.286Z,0
2019-02-19T01:59:41.727Z,0
2019-02-19T02:00:51.437Z,0
2019-02-19T02:02:01.139Z,0
2019-02-19T02:03:10.836Z,0
2019-02-19T02:04:20.270Z,0
2019-02-19T02:05:30.208Z,0
2019-02-19T02:06:39.639Z,0
2019-02-19T02:07:49.575Z,0
2019-02-19T02:08:59.511Z,0
2019-02-19T02:10:08.970Z,0
2019-02-19T02:11:18.434Z,0
2019-02-19T02:12:28.126Z,0
2019-02-19T02:13:37.579Z,0
2019-02-19T02:14:47.035Z,0
2019-02-19T02:15:56.478Z,0
2019-02-19T02:17:06.179Z,0
2019-02-19T02:18:16.112Z,0
2019-02-19T02:19:25.559Z,0
2019-02-19T02:20:34.998Z,0
2019-02-19T02:21:44.945Z,0
2019-02-19T02:22:54.905Z,0
2019-02-19T02:24:04.350Z,0
2019-02-19T02:25:14.351Z,0
2019-02-19T02:26:24.057Z,0
2019-02-19T02:27:33.513Z,0
2019-02-19T02:28:42.954Z,0
2019-02-19T02:29:52.390Z,0
2019-02-19T02:31:02.350Z,0
2019-02-19T02:32:11.556Z,0
2019-02-19T02:33:21.242Z,0
2019-02-19T02:34:30.958Z,0
2019-02-19T02:35:40.661Z,0
2019-02-19T02:36:50.597Z,0
2019-02-19T02:38:00.064Z,0
2019-02-19T02:39:09.758Z,0
2019-02-19T02:40:19.716Z,0
2019-02-19T02:41:29.181Z,0
2019-02-19T02:42:39.160Z,0
2019-02-19T02:43:48.616Z,0
2019-02-19T02:44:58.601Z,0
2019-02-19T02:46:08.590Z,0
2019-02-19T02:47:18.564Z,0
2019-02-19T02:48:28.513Z,0
2019-02-19T02:49:38.221Z,0
2019-02-19T02:50:48.164Z,0
2019-02-19T02:51:58.114Z,0
2019-02-19T02:53:08.052Z,0
2019-02-19T02:54:17.739Z,0
2019-02-19T02:55:27.449Z,0
2019-02-19T02:56:37.393Z,0
2019-02-19T02:57:47.089Z,0
2019-02-19T02:58:57.026Z,0
2019-02-19T03:00:06.775Z,0
2019-02-19T03:01:16.479Z,0
2019-02-19T03:02:26.169Z,0
2019-02-19T03:03:35.878Z,0
2019-02-19T03:04:45.834Z,0
2019-02-19T03:05:55.527Z,0
2019-02-19T03:07:05.482Z,0
2019-02-19T03:08:14.934Z,0
2019-02-19T03:09:24.115Z,0
2019-02-19T03:10:34.043Z,0
2019-02-19T03:11:44.069Z,0
2019-02-19T03:12:53.539Z,0
2019-02-19T03:14:03.511Z,0
2019-02-19T03:15:13.484Z,0
2019-02-19T03:16:23.432Z,0
2019-02-19T03:17:32.877Z,0
2019-02-19T03:18:42.835Z,0
2019-02-19T03:19:52.578Z,0
2019-02-19T03:21:02.005Z,0
2019-02-19T03:22:11.951Z,0
2019-02-19T03:23:21.638Z,0
2019-02-19T03:24:31.327Z,0
2019-02-19T03:25:40.787Z,0
2019-02-19T03:26:50.731Z,0
2019-02-19T03:28:00.674Z,0
2019-02-19T03:29:10.626Z,0
2019-02-19T03:30:20.381Z,0
2019-02-19T03:31:30.097Z,0
2019-02-19T03:32:40.080Z,0
2019-02-19T03:33:49.782Z,0
2019-02-19T03:34:59.769Z,0
2019-02-19T03:36:09.726Z,0
2019-02-19T03:37:19.679Z,0
2019-02-19T03:38:29.622Z,0
2019-02-19T03:39:39.322Z,0
2019-02-19T03:40:49.311Z,0
2019-02-19T03:41:59.007Z,0
2019-02-19T03:43:08.701Z,0
2019-02-19T03:44:18.158Z,0
2019-02-19T03:45:27.870Z,0
2019-02-19T03:46:37.572Z,0
2019-02-19T03:47:47.528Z,0
2019-02-19T03:48:57.341Z,0
2019-02-19T03:50:06.538Z,0
2019-02-19T03:51:15.988Z,0
2019-02-19T03:52:25.991Z,0
2019-02-19T03:53:35.433Z,0
2019-02-19T03:54:45.372Z,0
2019-02-19T03:55:55.087Z,0
2019-02-19T03:57:05.031Z,0
2019-02-19T03:58:14.991Z,0
2019-02-19T03:59:24.763Z,0
2019-02-19T04:00:34.715Z,0
2019-02-19T04:01:44.421Z,0
2019-02-19T04:02:54.384Z,0
2019-02-19T04:04:04.098Z,0
2019-02-19T04:05:13.816Z,0
2019-02-19T04:06:23.525Z,0
2019-02-19T04:07:33.487Z,0
2019-02-19T04:08:43.436Z,0
2019-02-19T04:09:53.140Z,0
2019-02-19T04:11:02.852Z,0
2019-02-19T04:12:12.557Z,0
2019-02-19T04:13:22.243Z,0
2019-02-19T04:14:31.684Z,0
2019-02-19T04:15:41.387Z,0
2019-02-19T04:16:51.395Z,0
2019-02-19T04:18:01.333Z,0
2019-02-19T04:19:11.294Z,0
2019-02-19T04:20:21.228Z,0
2019-02-19T04:21:30.669Z,0
2019-02-19T04:22:40.642Z,0
2019-02-19T04:23:50.350Z,0
2019-02-19T04:25:00.050Z,0
2019-02-19T04:26:10.064Z,0
2019-02-19T04:27:21.693Z,0
2019-02-19T04:28:31.382Z,0
2019-02-19T04:29:41.336Z,0
2019-02-19T04:30:51.085Z,0
2019-02-19T04:32:01.064Z,0
2019-02-19T04:33:11.002Z,0
2019-02-19T04:34:20.703Z,0
2019-02-19T04:35:30.643Z,0
2019-02-19T04:36:40.085Z,0
2019-02-19T04:37:50.061Z,0
2019-02-19T04:38:59.762Z,0
2019-02-19T04:40:09.722Z,0
2019-02-19T04:41:19.174Z,0
2019-02-19T04:42:28.866Z,0
2019-02-19T04:43:38.811Z,0
2019-02-19T04:44:48.750Z,0
2019-02-19T04:45:58.458Z,0
2019-02-19T04:47:07.943Z,0
2019-02-19T04:48:17.638Z,0
2019-02-19T04:49:27.345Z,0
2019-02-19T04:50:37.285Z,0
2019-02-19T04:51:46.749Z,0
2019-02-19T04:52:56.726Z,0
2019-02-19T04:54:05.914Z,0
2019-02-19T04:55:15.598Z,0
2019-02-19T04:56:26.482Z,0
2019-02-19T04:57:36.462Z,0
2019-02-19T04:58:46.167Z,0
2019-02-19T04:59:56.139Z,0
2019-02-19T05:01:06.082Z,0
2019-02-19T05:02:15.765Z,0
2019-02-19T05:03:25.199Z,0
2019-02-19T05:04:34.885Z,0
2019-02-19T05:05:44.583Z,0
2019-02-19T05:06:54.280Z,0
2019-02-19T05:08:03.984Z,0
2019-02-19T05:09:13.693Z,0
2019-02-19T05:10:23.134Z,0
2019-02-19T05:11:32.577Z,0
2019-02-19T05:12:42.261Z,0
2019-02-19T05:13:51.709Z,0
2019-02-19T05:15:01.170Z,0
2019-02-19T05:16:10.613Z,0
2019-02-19T05:17:20.993Z,0
2019-02-19T05:18:30.440Z,0
2019-02-19T05:19:39.895Z,0
2019-02-19T05:20:49.829Z,0
2019-02-19T05:21:59.536Z,0
2019-02-19T05:23:09.983Z,0
2019-02-19T05:24:19.430Z,0
2019-02-19T05:25:28.898Z,0
2019-02-19T05:26:38.355Z,0
2019-02-19T05:27:48.318Z,0
2019-02-19T05:28:58.254Z,0
2019-02-19T05:30:07.454Z,0
2019-02-19T05:31:17.168Z,0
2019-02-19T05:32:26.867Z,0
2019-02-19T05:33:36.547Z,0
2019-02-19T05:34:45.742Z,0
2019-02-19T05:35:54.984Z,0
2019-02-19T05:37:04.930Z,0
2019-02-19T05:38:14.887Z,0
2019-02-19T05:39:24.626Z,0
2019-02-19T05:40:33.824Z,0
2019-02-19T05:41:43.261Z,0
2019-02-19T05:42:52.744Z,0
2019-02-19T05:44:02.692Z,0
2019-02-19T05:45:12.642Z,0
2019-02-19T05:46:22.587Z,0
2019-02-19T05:47:32.583Z,0
2019-02-19T05:48:42.590Z,0
2019-02-19T05:49:52.274Z,0
2019-02-19T05:51:01.975Z,0
2019-02-19T05:52:11.669Z,0
2019-02-19T05:53:21.382Z,0
2019-02-19T05:54:31.372Z,0
2019-02-19T05:55:41.087Z,0
2019-02-19T05:56:50.567Z,0
2019-02-19T05:57:59.813Z,0
2019-02-19T05:59:09.796Z,0
2019-02-19T06:00:19.752Z,0
2019-02-19T06:01:29.212Z,0
2019-02-19T06:02:39.149Z,0
2019-02-19T06:03:48.594Z,0
2019-02-19T06:04:58.035Z,0
2019-02-19T06:06:07.984Z,0
2019-02-19T06:07:17.688Z,0
2019-02-19T06:08:27.393Z,0
2019-02-19T06:09:36.836Z,0
2019-02-19T06:10:48.998Z,0
2019-02-19T06:11:58.948Z,0
2019-02-19T06:13:08.884Z,0
2019-02-19T06:14:18.829Z,0
2019-02-19T06:15:28.787Z,0
2019-02-19T06:16:38.488Z,0
2019-02-19T06:17:48.434Z,0
2019-02-19T06:18:58.398Z,0
2019-02-19T06:20:08.355Z,0
2019-02-19T06:21:18.311Z,0
2019-02-19T06:22:28.019Z,0
2019-02-19T06:23:37.481Z,0
2019-02-19T06:24:47.199Z,0
2019-02-19T06:25:56.739Z,0
2019-02-19T06:27:06.536Z,0
2019-02-19T06:28:16.240Z,0
2019-02-19T06:29:26.182Z,0
2019-02-19T06:30:36.128Z,0
2019-02-19T06:31:45.823Z,0
2019-02-19T06:32:55.261Z,0
2019-02-19T06:34:05.233Z,0
2019-02-19T06:35:14.943Z,0
2019-02-19T06:36:24.648Z,0
2019-02-19T06:37:34.360Z,0
2019-02-19T06:38:44.328Z,0
2019-02-19T06:39:53.516Z,0
2019-02-19T06:41:04.450Z,0
2019-02-19T06:42:13.631Z,0
2019-02-19T06:43:23.326Z,0
2019-02-19T06:44:33.012Z,0
2019-02-19T06:45:42.698Z,0
2019-02-19T06:46:52.659Z,0
2019-02-19T06:48:02.600Z,0
2019-02-19T06:49:12.553Z,0
2019-02-19T06:50:22.552Z,0
2019-02-19T06:51:32.256Z,24
2019-02-19T06:52:41.939Z,24
2019-02-19T06:53:51.649Z,24
2019-02-19T06:55:01.376Z,24
2019-02-19T06:56:11.072Z,24
2019-02-19T06:57:20.770Z,0
2019-02-19T06:58:30.715Z,0
2019-02-19T06:59:40.149Z,0
2019-02-19T07:00:50.084Z,0
2019-02-19T07:01:59.513Z,0
2019-02-19T07:03:09.457Z,0
2019-02-19T07:04:19.396Z,0
2019-02-19T07:05:28.835Z,0
2019-02-19T07:06:38.311Z,0
2019-02-19T07:07:47.773Z,0
2019-02-19T07:08:57.205Z,0
2019-02-19T07:10:07.171Z,0
2019-02-19T07:11:16.865Z,0
2019-02-19T07:12:26.574Z,0
2019-02-19T07:13:36.016Z,0
2019-02-19T07:14:45.496Z,0
2019-02-19T07:15:55.180Z,0
2019-02-19T07:17:05.122Z,0
2019-02-19T07:18:23.616Z,0
2019-02-19T07:19:33.301Z,0
2019-02-19T07:20:42.999Z,0
2019-02-19T07:21:52.713Z,0
2019-02-19T07:23:01.656Z,0
2019-02-19T07:24:11.988Z,0
2019-02-19T07:25:21.953Z,0
2019-02-19T07:26:31.937Z,0
2019-02-19T07:27:41.887Z,0
2019-02-19T07:28:50.829Z,0
2019-02-19T07:30:00.513Z,0
2019-02-19T07:31:10.468Z,0
2019-02-19T07:32:20.165Z,0
2019-02-19T07:33:30.177Z,0
2019-02-19T07:34:41.008Z,0
2019-02-19T07:35:50.761Z,0
2019-02-19T07:37:00.724Z,0
2019-02-19T07:38:10.427Z,0
2019-02-19T07:39:20.118Z,0
2019-02-19T07:40:29.810Z,0
2019-02-19T07:41:39.260Z,0
2019-02-19T07:42:48.952Z,0
2019-02-19T07:43:59.019Z,0
2019-02-19T07:45:08.961Z,0
2019-02-19T07:46:18.646Z,0
2019-02-19T07:47:31.676Z,0
2019-02-19T07:48:41.664Z,0
2019-02-19T07:49:50.619Z,0
2019-02-19T07:51:00.311Z,0
2019-02-19T07:52:10.254Z,0
2019-02-19T07:53:20.210Z,0
2019-02-19T07:54:30.190Z,0
2019-02-19T07:55:39.950Z,0
2019-02-19T07:56:49.893Z,0
2019-02-19T07:57:59.651Z,0
2019-02-19T07:59:09.332Z,0
2019-02-19T08:00:18.777Z,0
2019-02-19T08:01:28.725Z,0
2019-02-19T08:02:38.172Z,0
2019-02-19T08:03:48.112Z,0
2019-02-19T08:04:57.305Z,0
2019-02-19T08:06:07.246Z,0
2019-02-19T08:07:17.189Z,0
2019-02-19T08:08:27.141Z,0
2019-02-19T08:09:36.845Z,0
2019-02-19T08:10:46.788Z,0
2019-02-19T08:11:56.222Z,0
2019-02-19T08:13:05.930Z,0
2019-02-19T08:14:15.637Z,0
2019-02-19T08:15:25.364Z,0
2019-02-19T08:16:35.330Z,0
2019-02-19T08:17:45.044Z,0
2019-02-19T08:18:55.005Z,0
2019-02-19T08:20:05.238Z,0
2019-02-19T08:21:23.434Z,0
2019-02-19T08:22:33.385Z,0
2019-02-19T08:23:42.576Z,0
2019-02-19T08:24:52.260Z,0
2019-02-19T08:26:01.718Z,0
2019-02-19T08:27:11.427Z,0
2019-02-19T08:28:20.877Z,24
2019-02-19T08:29:30.584Z,24
2019-02-19T08:30:40.017Z,24
2019-02-19T08:31:49.718Z,24
2019-02-19T08:32:59.664Z,28
2019-02-19T08:34:09.613Z,24
2019-02-19T08:35:19.307Z,28
2019-02-19T08:36:29.818Z,20
2019-02-19T08:37:39.375Z,24
2019-02-19T08:38:50.277Z,24
2019-02-19T08:39:59.968Z,24
2019-02-19T08:41:09.416Z,24
2019-02-19T08:42:19.415Z,24
2019-02-19T08:43:28.610Z,24
2019-02-19T08:44:38.054Z,24
2019-02-19T08:45:47.252Z,20
2019-02-19T08:46:56.697Z,24
2019-02-19T08:48:05.643Z,24
2019-02-19T08:49:15.326Z,24
2019-02-19T08:50:24.527Z,24
2019-02-19T08:51:34.231Z,24
2019-02-19T08:52:44.175Z,24
2019-02-19T08:53:54.112Z,24
2019-02-19T08:55:03.866Z,28
2019-02-19T08:56:13.559Z,24
2019-02-19T08:57:23.505Z,0
2019-02-19T08:58:33.464Z,0
2019-02-19T08:59:43.409Z,0
2019-02-19T09:00:53.103Z,0
2019-02-19T09:02:02.796Z,0
2019-02-19T09:03:12.495Z,0
2019-02-19T09:04:24.486Z,0
2019-02-19T09:05:34.443Z,0
2019-02-19T09:06:44.444Z,0
2019-02-19T09:07:53.650Z,0
2019-02-19T09:09:03.583Z,0
2019-02-19T09:10:13.530Z,0
2019-02-19T09:11:23.229Z,0
2019-02-19T09:12:32.927Z,0
2019-02-19T09:13:42.367Z,0
2019-02-19T09:14:54.182Z,4
2019-02-19T09:16:04.150Z,4
2019-02-19T09:17:14.117Z,4
2019-02-19T09:18:24.070Z,0
2019-02-19T09:19:33.700Z,0
2019-02-19T09:20:44.151Z,0
2019-02-19T09:21:53.859Z,4
2019-02-19T09:23:03.811Z,0
2019-02-19T09:24:16.860Z,0
2019-02-19T09:25:26.378Z,4
2019-02-19T09:26:36.333Z,0
2019-02-19T09:27:48.150Z,0
2019-02-19T09:28:57.854Z,0
2019-02-19T09:30:07.561Z,0
2019-02-19T09:31:17.503Z,0
2019-02-19T09:32:27.196Z,0
2019-02-19T09:33:36.655Z,0
2019-02-19T09:34:46.097Z,0
2019-02-19T09:35:56.055Z,0
2019-02-19T09:37:05.491Z,0
2019-02-19T09:38:15.444Z,0
2019-02-19T09:39:25.187Z,0
2019-02-19T09:40:36.005Z,0
2019-02-19T09:41:45.688Z,0
2019-02-19T09:42:55.375Z,0
2019-02-19T09:44:05.312Z,0
2019-02-19T09:45:15.250Z,0
2019-02-19T09:46:25.204Z,0
2019-02-19T09:47:35.156Z,0
2019-02-19T09:48:44.890Z,0
2019-02-19T09:49:54.845Z,0
2019-02-19T09:51:04.784Z,0
2019-02-19T09:52:14.726Z,0
2019-02-19T09:53:24.438Z,0
2019-02-19T09:54:34.141Z,0
2019-02-19T09:55:43.906Z,0
2019-02-19T09:56:53.900Z,0
2019-02-19T09:58:03.846Z,0
2019-02-19T09:59:13.553Z,0
2019-02-19T10:00:23.503Z,0
2019-02-19T10:01:35.324Z,0
2019-02-19T10:02:46.361Z,0
2019-02-19T10:03:56.311Z,0
2019-02-19T10:05:06.011Z,0
2019-02-19T10:06:15.720Z,0
2019-02-19T10:07:26.350Z,0
2019-02-19T10:08:36.301Z,0
2019-02-19T10:09:46.250Z,0
2019-02-19T10:10:56.200Z,0
2019-02-19T10:12:05.645Z,0
2019-02-19T10:13:15.623Z,0
2019-02-19T10:14:25.607Z,0
2019-02-19T10:15:35.577Z,0
2019-02-19T10:16:48.966Z,0
2019-02-19T10:17:58.645Z,0
2019-02-19T10:19:17.599Z,0
2019-02-19T10:20:27.305Z,0
2019-02-19T10:21:37.393Z,0
2019-02-19T10:22:47.345Z,0
2019-02-19T10:23:57.294Z,0
2019-02-19T10:25:07.146Z,0
2019-02-19T10:26:16.335Z,0
2019-02-19T10:27:25.791Z,0
2019-02-19T10:28:35.222Z,0
2019-02-19T10:29:45.164Z,0
2019-02-19T10:30:54.607Z,0
2019-02-19T10:32:03.800Z,0
2019-02-19T10:33:13.517Z,0
2019-02-19T10:34:22.965Z,0
2019-02-19T10:35:32.428Z,0
2019-02-19T10:36:43.437Z,0
2019-02-19T10:37:54.240Z,0
2019-02-19T10:39:04.188Z,0
2019-02-19T10:40:13.635Z,0
2019-02-19T10:41:23.081Z,0
2019-02-19T10:42:32.786Z,0
2019-02-19T10:43:42.230Z,0
2019-02-19T10:44:52.168Z,0
2019-02-19T10:46:01.877Z,0
2019-02-19T10:47:11.821Z,0
2019-02-19T10:48:26.426Z,0
2019-02-19T10:49:35.907Z,0
2019-02-19T10:50:45.626Z,0
2019-02-19T10:51:55.605Z,0
2019-02-19T10:53:05.569Z,0
2019-02-19T10:54:15.270Z,0
2019-02-19T10:55:24.996Z,0
2019-02-19T10:56:34.698Z,0
2019-02-19T10:57:44.651Z,0
2019-02-19T10:58:53.844Z,0
2019-02-19T11:00:03.788Z,0
2019-02-19T11:01:13.729Z,0
2019-02-19T11:02:23.413Z,0
2019-02-19T11:03:32.898Z,0
2019-02-19T11:04:44.773Z,0
2019-02-19T11:05:54.456Z,0
2019-02-19T11:07:04.173Z,0
2019-02-19T11:08:13.866Z,0
2019-02-19T11:09:23.829Z,0
2019-02-19T11:10:33.759Z,0
2019-02-19T11:11:43.219Z,0
2019-02-19T11:12:52.184Z,0
2019-02-19T11:14:01.876Z,0
2019-02-19T11:15:11.904Z,0
2019-02-19T11:16:21.103Z,0
2019-02-19T11:17:30.316Z,0
2019-02-19T11:18:40.252Z,0
2019-02-19T11:19:49.972Z,0
2019-02-19T11:20:59.422Z,0
2019-02-19T11:22:08.625Z,0
2019-02-19T11:23:18.587Z,0
2019-02-19T11:24:28.026Z,0
2019-02-19T11:25:37.466Z,0
2019-02-19T11:26:47.400Z,0
2019-02-19T11:27:57.090Z,0
2019-02-19T11:29:06.771Z,0
2019-02-19T11:30:16.508Z,0
2019-02-19T11:31:28.127Z,0
2019-02-19T11:32:37.618Z,0
2019-02-19T11:33:47.571Z,0
2019-02-19T11:34:57.517Z,0
2019-02-19T11:36:07.266Z,0
2019-02-19T11:37:16.981Z,0
2019-02-19T11:38:26.696Z,0
2019-02-19T11:39:36.389Z,0
2019-02-19T11:40:46.327Z,0
2019-02-19T11:41:56.013Z,0
2019-02-19T11:43:05.958Z,0
2019-02-19T11:44:15.157Z,0
2019-02-19T11:45:24.852Z,0
2019-02-19T11:46:34.543Z,0
2019-02-19T11:47:43.982Z,0
2019-02-19T11:48:53.443Z,0
2019-02-19T11:50:03.668Z,0
2019-02-19T11:51:13.109Z,0
2019-02-19T11:52:22.840Z,0
2019-02-19T11:53:32.805Z,0
2019-02-19T11:54:42.489Z,0
2019-02-19T11:55:52.417Z,0
2019-02-19T11:57:02.112Z,0
2019-02-19T11:58:12.059Z,0
2019-02-19T11:59:21.769Z,0
2019-02-19T12:00:30.721Z,0
2019-02-19T12:01:40.669Z,0
2019-02-19T12:02:50.126Z,0
2019-02-19T12:03:59.576Z,0
2019-02-19T12:05:09.465Z,0
2019-02-19T12:06:19.409Z,0
2019-02-19T12:07:29.096Z,0
2019-02-19T12:08:46.231Z,0
2019-02-19T12:09:56.182Z,0
2019-02-19T12:11:05.643Z,0
2019-02-19T12:12:15.586Z,0
2019-02-19T12:13:25.032Z,0
2019-02-19T12:14:34.738Z,0
2019-02-19T12:15:44.679Z,0
2019-02-19T12:16:54.627Z,0
2019-02-19T12:18:04.338Z,0
2019-02-19T12:19:14.299Z,0
2019-02-19T12:20:23.996Z,0
2019-02-19T12:21:33.945Z,0
2019-02-19T12:22:43.666Z,0
2019-02-19T12:23:53.372Z,0
2019-02-19T12:25:02.810Z,24
2019-02-19T12:26:12.526Z,28
2019-02-19T12:27:22.023Z,24
2019-02-19T12:28:32.024Z,24
2019-02-19T12:29:41.301Z,24
2019-02-19T12:30:51.075Z,24
2019-02-19T12:32:00.531Z,24
2019-02-19T12:33:10.486Z,24
2019-02-19T12:34:20.171Z,24
2019-02-19T12:35:29.889Z,24
2019-02-19T12:36:39.844Z,24
2019-02-19T12:37:49.532Z,24
2019-02-19T12:38:58.719Z,24
2019-02-19T12:40:08.664Z,24
2019-02-19T12:41:18.607Z,24
2019-02-19T12:42:28.297Z,24
2019-02-19T12:43:37.991Z,24
2019-02-19T12:44:47.431Z,24
2019-02-19T12:45:56.622Z,24
2019-02-19T12:47:06.056Z,24
2019-02-19T12:48:15.516Z,24
2019-02-19T12:49:25.472Z,24
2019-02-19T12:50:35.164Z,24
2019-02-19T12:51:44.876Z,24
2019-02-19T12:52:54.815Z,24
2019-02-19T12:54:04.760Z,24
2019-02-19T12:55:14.716Z,20
2019-02-19T12:56:24.402Z,20
2019-02-19T12:57:33.851Z,24
2019-02-19T12:58:44.279Z,20
2019-02-19T13:00:01.381Z,24
2019-02-19T13:01:11.111Z,0
2019-02-19T13:02:22.193Z,0
2019-02-19T13:03:32.176Z,0
2019-02-19T13:04:41.899Z,0
2019-02-19T13:05:51.859Z,0
2019-02-19T13:07:01.567Z,0
2019-02-19T13:08:11.510Z,0
2019-02-19T13:09:21.446Z,0
2019-02-19T13:10:31.139Z,0
2019-02-19T13:11:41.095Z,0
2019-02-19T13:12:51.564Z,0
2019-02-19T13:14:01.271Z,0
2019-02-19T13:15:11.013Z,0
2019-02-19T13:16:20.714Z,0
2019-02-19T13:17:30.462Z,0
2019-02-19T13:18:39.651Z,0
2019-02-19T13:19:49.588Z,0
2019-02-19T13:20:59.520Z,0
2019-02-19T13:22:09.246Z,0
2019-02-19T13:23:19.190Z,0
2019-02-19T13:24:29.146Z,0
2019-02-19T13:25:38.853Z,0
2019-02-19T13:26:48.313Z,0
2019-02-19T13:27:58.259Z,0
2019-02-19T13:29:07.948Z,0
2019-02-19T13:30:17.915Z,0
2019-02-19T13:31:27.858Z,0
2019-02-19T13:32:37.554Z,0
2019-02-19T13:33:46.994Z,0
2019-02-19T13:34:56.935Z,0
2019-02-19T13:36:06.641Z,56
2019-02-19T13:37:16.331Z,52
2019-02-19T13:38:25.770Z,80
2019-02-19T13:39:35.706Z,60
2019-02-19T13:40:45.157Z,64
2019-02-19T13:41:54.854Z,40
2019-02-19T13:43:04.806Z,28
2019-02-19T13:44:14.497Z,28
2019-02-19T13:45:24.187Z,28
2019-02-19T13:46:34.178Z,56
2019-02-19T13:47:43.881Z,60
2019-02-19T13:48:53.327Z,88
2019-02-19T13:50:03.007Z,76
2019-02-19T13:51:12.698Z,52
2019-02-19T13:52:29.853Z,44
2019-02-19T13:53:39.536Z,36
2019-02-19T13:54:49.282Z,48
2019-02-19T13:55:58.750Z,60
2019-02-19T13:57:08.441Z,52
2019-02-19T13:58:17.884Z,36
2019-02-19T13:59:27.835Z,36
2019-02-19T14:00:37.554Z,36
2019-02-19T14:01:47.244Z,32
2019-02-19T14:02:57.201Z,32
2019-02-19T14:04:06.891Z,28
2019-02-19T14:05:16.586Z,28
2019-02-19T14:06:26.317Z,28
2019-02-19T14:07:35.771Z,24
2019-02-19T14:08:45.467Z,40
2019-02-19T14:09:55.437Z,36
2019-02-19T14:11:04.890Z,36
2019-02-19T14:12:14.588Z,28
2019-02-19T14:13:23.792Z,24
2019-02-19T14:14:33.745Z,28
2019-02-19T14:15:43.685Z,20
2019-02-19T14:16:54.612Z,16
2019-02-19T14:18:04.308Z,28
2019-02-19T14:19:21.095Z,20
2019-02-19T14:20:31.061Z,20
2019-02-19T14:21:40.757Z,24
2019-02-19T14:22:50.454Z,28
2019-02-19T14:23:59.650Z,32
2019-02-19T14:25:09.337Z,32
2019-02-19T14:26:19.276Z,32
2019-02-19T14:27:29.213Z,20
2019-02-19T14:28:39.253Z,20
2019-02-19T14:29:48.683Z,24
2019-02-19T14:30:57.621Z,28
2019-02-19T14:32:07.569Z,28
2019-02-19T14:33:17.258Z,20
2019-02-19T14:34:26.552Z,24
2019-02-19T14:35:36.271Z,28
2019-02-19T14:36:46.218Z,28
2019-02-19T14:37:56.167Z,36
2019-02-19T14:39:05.887Z,40
2019-02-19T14:40:17.773Z,52
2019-02-19T14:41:26.995Z,56
2019-02-19T14:42:36.677Z,128
2019-02-19T14:43:46.630Z,92
2019-02-19T14:44:56.332Z,52
2019-02-19T14:46:06.021Z,28
2019-02-19T14:47:15.986Z,28
2019-02-19T14:48:25.733Z,24
2019-02-19T14:49:52.177Z,28
2019-02-19T14:51:02.157Z,12
2019-02-19T14:52:11.869Z,8
2019-02-19T14:53:21.824Z,20
2019-02-19T14:54:31.276Z,12
2019-02-19T14:55:41.233Z,16
2019-02-19T14:56:50.933Z,20
2019-02-19T14:58:00.692Z,20
2019-02-19T14:59:10.160Z,20
2019-02-19T15:00:19.898Z,24
2019-02-19T15:01:29.850Z,16
2019-02-19T15:02:39.991Z,16
2019-02-19T15:03:49.905Z,16
2019-02-19T15:04:59.904Z,12
2019-02-19T15:06:09.606Z,16
2019-02-19T15:07:20.724Z,16
2019-02-19T15:08:29.921Z,20
2019-02-19T15:09:39.406Z,36
2019-02-19T15:10:49.116Z,36
2019-02-19T15:11:59.147Z,36
2019-02-19T15:13:09.144Z,36
2019-02-19T15:14:19.122Z,40
2019-02-19T15:15:28.814Z,44
2019-02-19T15:16:38.010Z,32
2019-02-19T15:17:47.204Z,32
2019-02-19T15:18:56.897Z,32
2019-02-19T15:20:06.612Z,36
2019-02-19T15:21:16.057Z,28
2019-02-19T15:22:25.249Z,32
2019-02-19T15:23:35.181Z,40
2019-02-19T15:24:44.876Z,40
2019-02-19T15:25:54.325Z,44
2019-02-19T15:27:04.281Z,52
2019-02-19T15:28:13.736Z,36
2019-02-19T15:29:23.428Z,28
2019-02-19T15:30:33.137Z,20
2019-02-19T15:31:42.836Z,24
2019-02-19T15:32:52.779Z,24
2019-02-19T15:34:02.472Z,28
2019-02-19T15:35:12.424Z,28
2019-02-19T15:36:22.370Z,24
2019-02-19T15:37:32.061Z,24
2019-02-19T15:38:41.507Z,28
2019-02-19T15:39:50.962Z,28
2019-02-19T15:41:00.674Z,48
2019-02-19T15:42:10.140Z,52
2019-02-19T15:43:21.198Z,40
2019-02-19T15:44:30.906Z,24
2019-02-19T15:45:40.606Z,32
2019-02-19T15:46:50.295Z,20
2019-02-19T15:48:00.279Z,28
2019-02-19T15:49:10.073Z,16
2019-02-19T15:50:19.837Z,20
2019-02-19T15:51:29.779Z,20
2019-02-19T15:52:39.475Z,20
2019-02-19T15:53:49.419Z,12
2019-02-19T15:54:58.857Z,16
2019-02-19T15:56:17.104Z,16
2019-02-19T15:57:26.816Z,12
2019-02-19T15:58:36.507Z,12
2019-02-19T15:59:46.251Z,16
2019-02-19T16:00:57.317Z,20
2019-02-19T16:02:07.136Z,20
2019-02-19T16:03:16.832Z,16
2019-02-19T16:04:26.569Z,16
2019-02-19T16:05:36.272Z,16
2019-02-19T16:06:46.221Z,20
2019-02-19T16:07:55.673Z,20
2019-02-19T16:09:05.371Z,16
2019-02-19T16:10:14.841Z,12
2019-02-19T16:11:24.798Z,8
2019-02-19T16:12:34.507Z,8
2019-02-19T16:13:44.457Z,8
2019-02-19T16:14:54.395Z,4
2019-02-19T16:16:03.895Z,4
2019-02-19T16:17:13.402Z,8
2019-02-19T16:18:22.658Z,8
2019-02-19T16:19:32.652Z,8
2019-02-19T16:20:41.895Z,8
2019-02-19T16:21:51.840Z,8
2019-02-19T16:23:01.830Z,8
2019-02-19T16:24:11.562Z,4
2019-02-19T16:25:21.328Z,4
2019-02-19T16:26:31.296Z,4
2019-02-19T16:27:41.239Z,8
2019-02-19T16:28:51.190Z,4
2019-02-19T16:30:00.624Z,8
2019-02-19T16:31:10.607Z,8
2019-02-19T16:32:20.328Z,4
2019-02-19T16:33:30.037Z,4
2019-02-19T16:34:40.040Z,4
2019-02-19T16:35:49.501Z,4
2019-02-19T16:36:59.493Z,8
2019-02-19T16:38:09.482Z,4
2019-02-19T16:39:19.206Z,4
2019-02-19T16:40:28.914Z,4
2019-02-19T16:41:38.652Z,0
2019-02-19T16:42:48.132Z,0
2019-02-19T16:43:57.890Z,4
2019-02-19T16:45:07.609Z,4
2019-02-19T16:46:17.343Z,4
2019-02-19T16:47:27.074Z,0
2019-02-19T16:48:36.774Z,0
2019-02-19T16:49:46.467Z,0
2019-02-19T16:50:55.956Z,0
2019-02-19T16:52:05.930Z,0
2019-02-19T16:53:15.188Z,0
2019-02-19T16:54:24.897Z,0
2019-02-19T16:55:34.609Z,0
2019-02-19T16:56:44.078Z,0
2019-02-19T16:57:53.795Z,0
2019-02-19T16:59:12.128Z,0
2019-02-19T17:00:21.850Z,0
2019-02-19T17:01:31.562Z,0
2019-02-19T17:02:41.270Z,0
2019-02-19T17:03:51.254Z,0
2019-02-19T17:05:01.200Z,0
2019-02-19T17:06:11.181Z,0
2019-02-19T17:07:21.125Z,0
2019-02-19T17:08:30.817Z,0